createdAt,value
2019-05-02T00:00:43.546Z,12.75
2019-05-02T00:03:30.007Z,12.43
2019-05-02T00:06:15.353Z,9.93
2019-05-02T00:09:03.928Z,10.82
2019-05-02T00:11:58.637Z,14.50
2019-05-02T00:14:38.043Z,14.75
2019-05-02T00:17:25.699Z,13.05
2019-05-02T00:20:10.522Z,13.20
2019-05-02T00:22:55.609Z,14.40
2019-05-02T00:25:40.364Z,12.78
2019-05-02T00:28:25.621Z,12.25
2019-05-02T00:31:11.568Z,15.98
2019-05-02T00:33:57.376Z,10.63
2019-05-02T00:36:42.227Z,13.72
2019-05-02T00:39:27.013Z,12.07
2019-05-02T00:42:13.065Z,14.25
2019-05-02T00:44:58.681Z,9.50
2019-05-02T00:47:51.311Z,13.10
2019-05-02T00:50:40.609Z,10.33
2019-05-02T00:53:25.476Z,11.38
2019-05-02T00:56:10.463Z,10.08
2019-05-02T00:58:55.224Z,12.05
2019-05-02T01:01:44.732Z,15.03
2019-05-02T01:04:31.739Z,11.03
2019-05-02T01:07:20.296Z,11.15
2019-05-02T01:10:05.246Z,13.10
2019-05-02T01:12:50.179Z,10.28
2019-05-02T01:15:39.206Z,12.33
2019-05-02T01:18:24.055Z,14.95
2019-05-02T01:21:08.616Z,13.75
2019-05-02T01:23:53.458Z,11.38
2019-05-02T01:26:40.084Z,13.08
2019-05-02T01:29:29.842Z,13.55
2019-05-02T01:32:17.977Z,11.03
2019-05-02T01:35:06.700Z,11.85
2019-05-02T01:38:10.166Z,13.90
2019-05-02T01:40:54.926Z,11.38
2019-05-02T01:43:39.823Z,13.65
2019-05-02T01:46:24.883Z,14.33
2019-05-02T01:49:09.794Z,12.50
2019-05-02T01:51:54.762Z,15.72
2019-05-02T01:54:40.764Z,13.30
2019-05-02T01:57:26.634Z,13.95
2019-05-02T02:00:12.580Z,14.00
2019-05-02T02:02:57.664Z,12.85
2019-05-02T02:05:42.549Z,12.55
2019-05-02T02:08:31.969Z,12.55
2019-05-02T02:11:14.354Z,14.23
2019-05-02T02:13:59.065Z,16.25
2019-05-02T02:16:43.941Z,13.08
2019-05-02T02:19:30.543Z,12.98
2019-05-02T02:22:17.321Z,13.75
2019-05-02T02:25:19.436Z,11.83
2019-05-02T02:28:04.261Z,14.90
2019-05-02T02:30:49.289Z,11.63
2019-05-02T02:33:34.143Z,9.60
2019-05-02T02:36:30.167Z,13.53
2019-05-02T02:39:13.372Z,11.10
2019-05-02T02:41:54.212Z,11.88
2019-05-02T02:44:41.899Z,13.55
2019-05-02T02:47:27.548Z,9.48
2019-05-02T02:50:12.559Z,12.63
2019-05-02T02:52:57.617Z,12.65
2019-05-02T02:55:42.574Z,11.97
2019-05-02T02:58:27.799Z,14.73
2019-05-02T03:01:12.823Z,11.90
2019-05-02T03:04:01.829Z,12.20
2019-05-02T03:06:47.135Z,13.32
2019-05-02T03:09:32.887Z,14.35
2019-05-02T03:12:22.380Z,14.13
2019-05-02T03:15:09.485Z,12.90
2019-05-02T03:17:59.942Z,11.30
2019-05-02T03:20:42.182Z,12.43
2019-05-02T03:23:27.235Z,10.00
2019-05-02T03:26:15.060Z,10.35
2019-05-02T03:29:00.808Z,13.45
2019-05-02T03:31:45.933Z,10.28
2019-05-02T03:34:47.896Z,11.90
2019-05-02T03:37:18.650Z,13.40
2019-05-02T03:40:04.254Z,11.93
2019-05-02T03:42:49.790Z,13.10
2019-05-02T03:45:40.287Z,12.60
2019-05-02T03:48:25.839Z,16.67
2019-05-02T03:51:19.776Z,13.05
2019-05-02T03:54:05.729Z,13.53
2019-05-02T03:56:44.856Z,11.85
2019-05-02T03:59:37.230Z,12.65
2019-05-02T04:02:20.314Z,12.58
2019-05-02T04:05:04.686Z,10.88
2019-05-02T04:07:49.708Z,14.03
2019-05-02T04:10:44.516Z,12.00
2019-05-02T04:13:36.308Z,14.63
2019-05-02T04:16:17.828Z,12.85
2019-05-02T04:19:03.417Z,13.72
2019-05-02T04:21:52.643Z,20.60
2019-05-02T04:24:35.585Z,27.27
2019-05-02T04:27:20.491Z,28.25
2019-05-02T04:30:11.425Z,25.72
2019-05-02T04:32:55.960Z,16.82
2019-05-02T04:35:40.437Z,16.42
2019-05-02T04:38:41.750Z,14.70
2019-05-02T04:41:21.309Z,11.65
2019-05-02T04:44:01.591Z,14.35
2019-05-02T04:46:45.586Z,13.22
2019-05-02T04:49:35.806Z,11.22
2019-05-02T04:52:20.907Z,15.90
2019-05-02T04:55:14.624Z,10.65
2019-05-02T04:57:51.701Z,14.70
2019-05-02T05:00:38.985Z,13.65
2019-05-02T05:03:23.528Z,11.03
2019-05-02T05:06:12.141Z,11.20
2019-05-02T05:08:54.995Z,12.20
2019-05-02T05:11:40.010Z,11.45
2019-05-02T05:14:24.647Z,16.12
2019-05-02T05:17:09.629Z,16.12
2019-05-02T05:19:54.518Z,15.28
2019-05-02T05:22:44.162Z,12.98
2019-05-02T05:25:27.963Z,17.55
2019-05-02T05:28:12.801Z,14.73
2019-05-02T05:30:58.356Z,15.68
2019-05-02T05:33:43.344Z,14.00
2019-05-02T05:36:32.597Z,17.77
2019-05-02T05:39:14.798Z,14.38
2019-05-02T05:41:59.557Z,13.25
2019-05-02T05:44:44.568Z,15.40
2019-05-02T05:47:29.272Z,14.85
2019-05-02T05:50:14.281Z,12.35
2019-05-02T05:52:59.582Z,15.03
2019-05-02T05:55:44.370Z,13.10
2019-05-02T05:58:29.110Z,14.07
2019-05-02T06:01:13.920Z,13.25
2019-05-02T06:03:58.648Z,15.05
2019-05-02T06:06:44.834Z,16.48
2019-05-02T06:09:31.015Z,12.40
2019-05-02T06:12:16.553Z,11.73
2019-05-02T06:15:01.975Z,15.48
2019-05-02T06:17:48.419Z,13.72
2019-05-02T06:20:33.387Z,13.28
2019-05-02T06:23:18.257Z,15.03
2019-05-02T06:26:08.024Z,16.07
2019-05-02T06:28:50.949Z,16.32
2019-05-02T06:31:38.118Z,13.05
2019-05-02T06:34:22.441Z,15.35
2019-05-02T06:37:08.223Z,18.50
2019-05-02T06:39:54.292Z,19.50
2019-05-02T06:42:39.065Z,13.78
2019-05-02T06:45:24.085Z,14.53
2019-05-02T06:48:17.194Z,15.23
2019-05-02T06:50:57.084Z,14.45
2019-05-02T06:53:46.969Z,16.50
2019-05-02T06:56:28.586Z,11.25
2019-05-02T06:59:18.549Z,13.70
2019-05-02T07:02:00.969Z,15.85
2019-05-02T07:04:46.347Z,11.75
2019-05-02T07:07:36.874Z,14.98
2019-05-02T07:10:20.157Z,13.70
2019-05-02T07:13:10.766Z,11.28
2019-05-02T07:16:16.182Z,11.85
2019-05-02T07:19:01.158Z,14.53
2019-05-02T07:21:46.413Z,13.40
2019-05-02T07:24:32.643Z,13.45
2019-05-02T07:27:17.693Z,12.98
2019-05-02T07:30:04.839Z,14.63
2019-05-02T07:32:50.384Z,12.25
2019-05-02T07:35:35.222Z,17.57
2019-05-02T07:38:25.044Z,14.45
2019-05-02T07:41:06.976Z,16.87
2019-05-02T07:43:56.067Z,14.53
2019-05-02T07:46:51.178Z,16.23
2019-05-02T07:49:26.714Z,15.75
2019-05-02T07:52:12.621Z,16.50
2019-05-02T07:55:01.224Z,14.83
2019-05-02T07:57:44.557Z,13.80
2019-05-02T08:00:32.049Z,20.23
2019-05-02T08:03:16.693Z,14.95
2019-05-02T08:06:01.643Z,18.25
2019-05-02T08:08:47.118Z,15.68
2019-05-02T08:11:32.287Z,14.68
2019-05-02T08:14:18.626Z,16.30
2019-05-02T08:17:05.755Z,15.40
2019-05-02T08:19:51.767Z,17.50
2019-05-02T08:22:36.747Z,17.30
2019-05-02T08:25:21.801Z,18.05
2019-05-02T08:28:15.827Z,17.25
2019-05-02T08:30:58.274Z,19.42
2019-05-02T08:33:56.596Z,17.45
2019-05-02T08:36:41.555Z,16.20
2019-05-02T08:39:33.113Z,18.90
2019-05-02T08:42:13.589Z,19.48
2019-05-02T08:45:00.935Z,16.00
2019-05-02T08:47:45.443Z,17.35
2019-05-02T08:50:31.876Z,20.55
2019-05-02T08:53:19.844Z,15.78
2019-05-02T08:56:04.084Z,16.85
2019-05-02T08:58:49.802Z,18.35
2019-05-02T09:01:37.340Z,25.32
2019-05-02T09:04:24.239Z,21.95
2019-05-02T09:07:09.169Z,20.08
2019-05-02T09:09:55.597Z,23.00
2019-05-02T09:12:42.062Z,21.57
2019-05-02T09:15:27.904Z,22.15
2019-05-02T09:18:12.761Z,17.95
2019-05-02T09:20:59.037Z,20.08
2019-05-02T09:23:44.126Z,18.77
2019-05-02T09:26:36.187Z,21.33
2019-05-02T09:29:16.100Z,20.85
2019-05-02T09:32:02.143Z,22.15
2019-05-02T09:34:48.097Z,23.98
2019-05-02T09:37:33.301Z,28.47
2019-05-02T09:40:18.205Z,28.20
2019-05-02T09:43:04.815Z,27.93
2019-05-02T09:45:51.841Z,23.73
2019-05-02T09:48:36.537Z,26.48
2019-05-02T09:51:22.645Z,31.10
2019-05-02T09:54:07.488Z,25.85
2019-05-02T09:56:52.611Z,27.45
2019-05-02T09:59:37.656Z,25.05
2019-05-02T10:02:25.196Z,27.48
2019-05-02T10:05:09.831Z,31.25
2019-05-02T10:07:57.524Z,28.57
2019-05-02T10:10:45.764Z,31.12
2019-05-02T10:13:31.881Z,35.45
2019-05-02T10:16:18.042Z,29.90
2019-05-02T10:19:09.418Z,28.80
2019-05-02T10:21:52.491Z,29.52
2019-05-02T10:24:38.045Z,28.27
2019-05-02T10:27:22.831Z,30.70
2019-05-02T10:30:14.823Z,31.40
2019-05-02T10:32:57.994Z,28.05
2019-05-02T10:35:45.457Z,33.95
2019-05-02T10:38:32.505Z,30.48
2019-05-02T10:41:17.292Z,29.70
2019-05-02T10:44:02.325Z,31.70
2019-05-02T10:46:52.373Z,31.30
2019-05-02T10:49:45.337Z,30.27
2019-05-02T10:52:34.019Z,29.60
2019-05-02T10:55:17.531Z,30.43
2019-05-02T10:58:02.965Z,30.12
2019-05-02T11:00:48.033Z,31.80
2019-05-02T11:03:38.142Z,35.63
2019-05-02T11:06:24.746Z,30.57
2019-05-02T11:09:11.899Z,30.43
2019-05-02T11:11:57.514Z,29.80
2019-05-02T11:14:51.676Z,27.20
2019-05-02T11:17:42.312Z,27.85
2019-05-02T11:20:27.599Z,31.35
2019-05-02T11:23:12.723Z,26.12
2019-05-02T11:25:58.122Z,28.75
2019-05-02T11:28:43.073Z,29.27
2019-05-02T11:31:28.137Z,25.23
2019-05-02T11:34:13.376Z,28.77
2019-05-02T11:37:12.138Z,25.72
2019-05-02T11:40:00.128Z,27.15
2019-05-02T11:42:43.869Z,25.20
2019-05-02T11:45:28.725Z,25.35
2019-05-02T11:48:13.992Z,25.90
2019-05-02T11:50:59.299Z,22.22
2019-05-02T11:53:44.384Z,26.65
2019-05-02T11:56:29.618Z,29.60
2019-05-02T11:59:15.067Z,23.45
2019-05-02T12:02:04.690Z,23.30
2019-05-02T12:04:53.970Z,22.02
2019-05-02T12:07:37.032Z,23.83
2019-05-02T12:10:22.126Z,17.42
2019-05-02T12:13:11.896Z,18.95
2019-05-02T12:15:53.975Z,23.00
2019-05-02T12:18:39.032Z,25.08
2019-05-02T12:21:25.963Z,20.43
2019-05-02T12:24:12.663Z,22.67
2019-05-02T12:26:57.617Z,19.25
2019-05-02T12:29:42.508Z,18.52
2019-05-02T12:32:27.352Z,20.17
2019-05-02T12:35:12.447Z,18.73
2019-05-02T12:37:57.478Z,19.25
2019-05-02T12:40:42.388Z,20.02
2019-05-02T12:43:41.690Z,18.27
2019-05-02T12:46:28.467Z,17.62
2019-05-02T12:49:24.365Z,18.95
2019-05-02T12:52:01.832Z,20.52
2019-05-02T12:54:48.280Z,22.93
2019-05-02T12:57:33.333Z,21.95
2019-05-02T13:00:18.870Z,21.15
2019-05-02T13:03:05.778Z,18.10
2019-05-02T13:05:52.104Z,19.57
2019-05-02T13:08:49.113Z,19.20
2019-05-02T13:11:42.198Z,18.00
2019-05-02T13:14:27.910Z,16.27
2019-05-02T13:17:13.185Z,14.65
2019-05-02T13:20:03.143Z,20.43
2019-05-02T13:23:06.641Z,15.72
2019-05-02T13:25:51.910Z,14.93
2019-05-02T13:28:37.200Z,11.83
2019-05-02T13:31:23.953Z,13.88
2019-05-02T13:34:16.562Z,14.87
2019-05-02T13:37:02.906Z,11.77
2019-05-02T13:39:58.970Z,12.95
2019-05-02T13:42:44.054Z,13.83
2019-05-02T13:45:36.634Z,12.80
2019-05-02T13:48:21.856Z,14.95
2019-05-02T13:51:06.946Z,14.87
2019-05-02T13:53:53.994Z,10.53
2019-05-02T13:56:43.333Z,13.18
2019-05-02T13:59:27.721Z,17.55
2019-05-02T14:02:34.735Z,14.98
2019-05-02T14:05:19.672Z,16.65
2019-05-02T14:08:18.804Z,16.23
2019-05-02T14:11:05.600Z,15.15
2019-05-02T14:13:52.143Z,14.20
2019-05-02T14:16:37.468Z,12.98
2019-05-02T14:19:22.665Z,13.68
2019-05-02T14:22:07.301Z,13.53
2019-05-02T14:24:52.073Z,13.28
2019-05-02T14:27:37.449Z,14.07
2019-05-02T14:30:35.961Z,10.43
2019-05-02T14:33:13.121Z,11.57
2019-05-02T14:35:58.189Z,14.13
2019-05-02T14:38:46.209Z,14.63
2019-05-02T14:41:40.866Z,16.10
2019-05-02T14:44:23.310Z,15.28
2019-05-02T14:47:10.042Z,13.78
2019-05-02T14:49:52.309Z,15.65
2019-05-02T14:52:41.419Z,16.48
2019-05-02T14:55:25.668Z,15.80
2019-05-02T14:58:12.351Z,14.40
2019-05-02T15:00:58.026Z,16.57
2019-05-02T15:03:42.981Z,13.10
2019-05-02T15:06:31.017Z,14.28
2019-05-02T15:09:16.770Z,17.25
2019-05-02T15:12:03.223Z,13.40
2019-05-02T15:14:49.875Z,16.02
2019-05-02T15:17:37.836Z,14.53
2019-05-02T15:20:36.226Z,18.98
2019-05-02T15:23:14.399Z,12.05
2019-05-02T15:25:56.340Z,10.90
2019-05-02T15:28:42.178Z,10.30
2019-05-02T15:31:34.289Z,10.05
2019-05-02T15:34:22.600Z,10.88
2019-05-02T15:37:07.869Z,8.65
2019-05-02T15:42:39.516Z,11.20
2019-05-02T15:45:24.563Z,10.58
2019-05-02T15:48:14.610Z,12.43
2019-05-02T15:51:00.046Z,13.78
2019-05-02T15:53:49.760Z,11.90
2019-05-02T15:56:35.800Z,9.13
2019-05-02T15:59:32.574Z,9.58
2019-05-02T16:02:26.353Z,11.57
2019-05-02T16:05:11.767Z,15.30
2019-05-02T16:08:05.372Z,12.03
2019-05-02T16:10:43.998Z,9.30
2019-05-02T16:13:28.892Z,24.02
2019-05-02T16:16:14.029Z,8.83
2019-05-02T16:18:59.208Z,8.75
2019-05-02T16:21:46.049Z,8.58
2019-05-02T16:24:32.091Z,6.95
2019-05-02T16:27:21.901Z,7.45
2019-05-02T16:30:07.888Z,9.85
2019-05-02T16:32:56.915Z,7.90
2019-05-02T16:35:42.089Z,8.05
2019-05-02T16:38:31.272Z,11.20
2019-05-02T16:41:13.781Z,10.78
2019-05-02T16:43:59.077Z,10.45
2019-05-02T16:46:43.937Z,9.70
2019-05-02T16:49:29.515Z,9.50
2019-05-02T16:52:16.082Z,8.08
2019-05-02T16:55:02.972Z,9.90
2019-05-02T16:57:48.427Z,10.30
2019-05-02T17:00:37.069Z,8.83
2019-05-02T17:03:22.728Z,12.53
2019-05-02T17:06:07.011Z,12.93
2019-05-02T17:08:58.687Z,10.75
2019-05-02T17:11:45.320Z,11.08
2019-05-02T17:14:31.722Z,11.43
2019-05-02T17:17:16.966Z,11.05
2019-05-02T17:20:07.274Z,11.95
2019-05-02T17:22:57.402Z,12.78
2019-05-02T17:25:41.511Z,12.47
2019-05-02T17:28:26.609Z,14.85
2019-05-02T17:31:19.071Z,16.75
2019-05-02T17:33:58.061Z,14.98
2019-05-02T17:36:45.634Z,12.13
2019-05-02T17:39:29.577Z,12.88
2019-05-02T17:42:16.990Z,14.20
2019-05-02T17:45:03.834Z,16.35
2019-05-02T17:47:48.803Z,17.07
2019-05-02T17:50:42.284Z,18.30
2019-05-02T17:53:27.857Z,17.62
2019-05-02T17:56:20.852Z,18.07
2019-05-02T17:58:59.931Z,17.62
2019-05-02T18:01:44.784Z,17.12
2019-05-02T18:04:29.583Z,16.82
2019-05-02T18:07:14.473Z,20.10
2019-05-02T18:09:59.324Z,22.05
2019-05-02T18:12:47.246Z,21.75
2019-05-02T18:15:34.750Z,21.73
2019-05-02T18:18:18.822Z,21.37
2019-05-02T18:21:03.844Z,22.77
2019-05-02T18:23:49.110Z,23.62
2019-05-02T18:26:34.117Z,22.17
2019-05-02T18:29:19.418Z,20.50
2019-05-02T18:32:04.310Z,21.25
2019-05-02T18:34:51.777Z,21.15
2019-05-02T18:37:37.258Z,26.45
2019-05-02T18:40:27.883Z,22.75
2019-05-02T18:43:11.148Z,27.75
2019-05-02T18:45:58.137Z,27.32
2019-05-02T18:48:46.783Z,26.85
2019-05-02T18:51:31.983Z,29.87
2019-05-02T18:54:17.508Z,28.07
2019-05-02T18:57:02.925Z,28.83
2019-05-02T18:59:52.014Z,29.60
2019-05-02T19:02:35.688Z,31.17
2019-05-02T19:05:22.959Z,30.15
2019-05-02T19:08:08.575Z,30.82
2019-05-02T19:11:04.359Z,33.95
2019-05-02T19:13:42.669Z,29.02
2019-05-02T19:16:28.850Z,32.17
2019-05-02T19:19:14.357Z,35.52
2019-05-02T19:21:59.621Z,37.35
2019-05-02T19:24:44.586Z,34.65
2019-05-02T19:27:33.081Z,33.05
2019-05-02T19:30:25.862Z,37.17
2019-05-02T19:33:08.449Z,40.70
2019-05-02T19:35:53.782Z,37.00
2019-05-02T19:38:39.045Z,36.23
2019-05-02T19:41:24.504Z,43.78
2019-05-02T19:44:09.808Z,41.90
2019-05-02T19:46:55.981Z,41.63
2019-05-02T19:49:42.556Z,39.33
2019-05-02T19:52:28.676Z,36.95
2019-05-02T19:55:20.087Z,44.05
2019-05-02T19:58:06.317Z,45.60
2019-05-02T20:00:48.901Z,46.50
2019-05-02T20:03:34.355Z,42.50
2019-05-02T20:06:19.419Z,42.33
2019-05-02T20:09:08.330Z,45.15
2019-05-02T20:11:53.502Z,44.83
2019-05-02T20:14:43.574Z,48.48
2019-05-02T20:17:25.579Z,44.18
2019-05-02T20:20:47.369Z,52.78
2019-05-02T20:23:35.541Z,52.45
2019-05-02T20:26:19.542Z,43.80
2019-05-02T20:29:04.988Z,47.20
2019-05-02T20:31:51.592Z,53.02
2019-05-02T20:34:36.669Z,48.95
2019-05-02T20:37:22.206Z,49.50
2019-05-02T20:40:11.933Z,47.93
2019-05-02T20:42:57.161Z,46.63
2019-05-02T20:45:42.041Z,46.77
2019-05-02T20:48:27.102Z,47.38
2019-05-02T20:51:12.339Z,46.70
2019-05-02T20:53:57.605Z,46.48
2019-05-02T20:56:42.795Z,42.95
2019-05-02T20:59:28.030Z,50.40
2019-05-02T21:02:12.922Z,45.20
2019-05-02T21:04:58.221Z,46.28
2019-05-02T21:07:52.528Z,45.80
2019-05-02T21:10:48.357Z,47.13
2019-05-02T21:13:33.397Z,46.37
2019-05-02T21:16:18.340Z,49.35
2019-05-02T21:19:03.593Z,47.85
2019-05-02T21:21:48.843Z,46.28
2019-05-02T21:24:33.949Z,46.05
2019-05-02T21:27:18.672Z,47.40
2019-05-02T21:30:07.207Z,51.13
2019-05-02T21:32:52.536Z,48.75
2019-05-02T21:35:37.738Z,48.85
2019-05-02T21:38:22.807Z,50.20
2019-05-02T21:41:09.637Z,48.35
2019-05-02T21:43:54.444Z,54.60
2019-05-02T21:46:39.433Z,52.40
2019-05-02T21:49:42.954Z,54.23
2019-05-02T21:52:36.159Z,57.65
2019-05-02T21:55:25.564Z,57.35
2019-05-02T21:58:12.063Z,53.28
2019-05-02T22:01:04.502Z,60.73
2019-05-02T22:03:51.105Z,55.48
2019-05-02T22:06:35.862Z,54.55
2019-05-02T22:09:22.829Z,61.85
2019-05-02T22:12:07.889Z,59.60
2019-05-02T22:14:53.024Z,54.88
2019-05-02T22:17:37.818Z,49.45
2019-05-02T22:20:22.984Z,53.13
2019-05-02T22:23:08.059Z,48.52
2019-05-02T22:25:52.861Z,50.05
2019-05-02T22:28:37.633Z,47.23
2019-05-02T22:31:22.755Z,53.48
2019-05-02T22:34:07.738Z,49.80
2019-05-02T22:36:54.303Z,47.27
2019-05-02T22:39:42.101Z,46.60
2019-05-02T22:42:27.334Z,45.88
2019-05-02T22:45:12.560Z,48.95
2019-05-02T22:47:57.453Z,52.50
2019-05-02T22:50:42.295Z,50.95
2019-05-02T22:53:27.140Z,52.45
2019-05-02T22:56:13.467Z,48.92
2019-05-02T22:58:58.598Z,53.38
2019-05-02T23:01:43.521Z,48.52
2019-05-02T23:04:28.319Z,52.70
2019-05-02T23:07:13.348Z,46.13
2019-05-02T23:09:58.501Z,44.77
2019-05-02T23:12:43.678Z,43.10
2019-05-02T23:15:28.840Z,43.15
2019-05-02T23:18:13.753Z,44.13
2019-05-02T23:20:58.747Z,42.35
2019-05-02T23:23:43.381Z,50.83
2019-05-02T23:26:48.179Z,45.63
2019-05-02T23:29:33.081Z,46.98
2019-05-02T23:32:17.919Z,46.23
2019-05-02T23:35:07.328Z,40.15
2019-05-02T23:37:52.961Z,41.77
2019-05-02T23:40:38.318Z,44.70
2019-05-02T23:43:23.145Z,46.95
2019-05-02T23:46:07.909Z,45.38
2019-05-02T23:48:52.893Z,39.03
2019-05-02T23:51:37.558Z,36.30
2019-05-02T23:54:22.397Z,39.75
2019-05-02T23:57:07.302Z,43.38
2019-05-02T23:59:52.173Z,40.55
